sensor_id;sensor_type;location;lat;lon;timestamp;P1;durP1;ratioP1;P2;durP2;ratioP2
19187;SDS011;9726;52.198;8.792;2024-01-06T00:00:37;18.13;;;10.30;;
19187;SDS011;9726;52.198;8.792;2024-01-06T00:03:04;14.93;;;10.90;;
19187;SDS011;9726;52.198;8.792;2024-01-06T00:05:32;18.03;;;11.43;;
19187;SDS011;9726;52.198;8.792;2024-01-06T00:07:59;28.20;;;16.53;;
19187;SDS011;9726;52.198;8.792;2024-01-06T00:10:27;19.47;;;14.13;;
19187;SDS011;9726;52.198;8.792;2024-01-06T00:12:55;22.70;;;15.20;;
19187;SDS011;9726;52.198;8.792;2024-01-06T00:15:22;24.80;;;15.40;;
19187;SDS011;9726;52.198;8.792;2024-01-06T00:17:50;24.43;;;14.97;;
19187;SDS011;9726;52.198;8.792;2024-01-06T00:20:17;24.97;;;14.93;;
19187;SDS011;9726;52.198;8.792;2024-01-06T00:22:45;25.87;;;15.50;;
19187;SDS011;9726;52.198;8.792;2024-01-06T00:25:13;26.17;;;16.13;;
19187;SDS011;9726;52.198;8.792;2024-01-06T00:27:40;23.60;;;15.00;;
19187;SDS011;9726;52.198;8.792;2024-01-06T00:30:08;26.37;;;16.00;;
19187;SDS011;9726;52.198;8.792;2024-01-06T00:32:36;25.93;;;17.20;;
19187;SDS011;9726;52.198;8.792;2024-01-06T00:35:04;25.07;;;15.57;;
19187;SDS011;9726;52.198;8.792;2024-01-06T00:37:32;29.53;;;15.93;;
19187;SDS011;9726;52.198;8.792;2024-01-06T00:39:59;26.17;;;15.47;;
19187;SDS011;9726;52.198;8.792;2024-01-06T00:42:27;26.97;;;16.07;;
19187;SDS011;9726;52.198;8.792;2024-01-06T00:44:54;28.57;;;16.80;;
19187;SDS011;9726;52.198;8.792;2024-01-06T00:47:22;23.63;;;14.97;;
19187;SDS011;9726;52.198;8.792;2024-01-06T00:49:50;26.70;;;15.83;;
19187;SDS011;9726;52.198;8.792;2024-01-06T00:52:18;29.07;;;15.93;;
19187;SDS011;9726;52.198;8.792;2024-01-06T00:54:46;27.87;;;14.17;;
19187;SDS011;9726;52.198;8.792;2024-01-06T00:57:14;23.07;;;13.70;;
19187;SDS011;9726;52.198;8.792;2024-01-06T00:59:41;18.40;;;11.70;;
19187;SDS011;9726;52.198;8.792;2024-01-06T01:02:09;15.97;;;9.17;;
19187;SDS011;9726;52.198;8.792;2024-01-06T01:04:36;10.40;;;6.67;;
19187;SDS011;9726;52.198;8.792;2024-01-06T01:07:04;12.33;;;6.60;;
19187;SDS011;9726;52.198;8.792;2024-01-06T01:09:31;12.70;;;7.30;;
19187;SDS011;9726;52.198;8.792;2024-01-06T01:11:59;12.13;;;7.57;;
19187;SDS011;9726;52.198;8.792;2024-01-06T01:14:27;11.90;;;7.67;;
19187;SDS011;9726;52.198;8.792;2024-01-06T01:16:54;14.30;;;8.60;;
19187;SDS011;9726;52.198;8.792;2024-01-06T01:19:22;13.47;;;8.07;;
19187;SDS011;9726;52.198;8.792;2024-01-06T01:21:49;14.17;;;8.27;;
19187;SDS011;9726;52.198;8.792;2024-01-06T01:24:20;14.70;;;8.80;;
19187;SDS011;9726;52.198;8.792;2024-01-06T01:26:48;16.97;;;9.90;;
19187;SDS011;9726;52.198;8.792;2024-01-06T01:29:16;18.97;;;11.37;;
19187;SDS011;9726;52.198;8.792;2024-01-06T01:31:48;24.20;;;11.13;;
19187;SDS011;9726;52.198;8.792;2024-01-06T01:34:16;24.90;;;12.73;;
19187;SDS011;9726;52.198;8.792;2024-01-06T01:36:44;21.73;;;11.93;;
19187;SDS011;9726;52.198;8.792;2024-01-06T01:39:11;25.37;;;13.17;;
19187;SDS011;9726;52.198;8.792;2024-01-06T01:41:39;22.87;;;13.20;;
19187;SDS011;9726;52.198;8.792;2024-01-06T01:44:07;26.73;;;14.23;;
19187;SDS011;9726;52.198;8.792;2024-01-06T01:46:35;24.07;;;13.97;;
19187;SDS011;9726;52.198;8.792;2024-01-06T01:49:02;33.47;;;14.80;;
19187;SDS011;9726;52.198;8.792;2024-01-06T01:51:31;26.57;;;14.70;;
19187;SDS011;9726;52.198;8.792;2024-01-06T01:54:04;25.97;;;14.57;;
19187;SDS011;9726;52.198;8.792;2024-01-06T01:56:33;25.77;;;14.80;;
19187;SDS011;9726;52.198;8.792;2024-01-06T01:59:03;24.93;;;13.80;;
19187;SDS011;9726;52.198;8.792;2024-01-06T02:01:33;23.30;;;13.93;;
19187;SDS011;9726;52.198;8.792;2024-01-06T02:04:01;25.00;;;14.27;;
19187;SDS011;9726;52.198;8.792;2024-01-06T02:06:28;27.50;;;13.90;;
19187;SDS011;9726;52.198;8.792;2024-01-06T02:08:56;24.87;;;13.70;;
19187;SDS011;9726;52.198;8.792;2024-01-06T02:11:24;35.63;;;15.27;;
19187;SDS011;9726;52.198;8.792;2024-01-06T02:13:51;28.73;;;15.10;;
19187;SDS011;9726;52.198;8.792;2024-01-06T02:16:19;26.90;;;15.20;;
19187;SDS011;9726;52.198;8.792;2024-01-06T02:18:46;26.53;;;13.90;;
19187;SDS011;9726;52.198;8.792;2024-01-06T02:21:14;23.47;;;13.57;;
19187;SDS011;9726;52.198;8.792;2024-01-06T02:23:42;31.63;;;15.83;;
19187;SDS011;9726;52.198;8.792;2024-01-06T02:26:10;28.07;;;14.87;;
19187;SDS011;9726;52.198;8.792;2024-01-06T02:28:38;30.03;;;15.53;;
19187;SDS011;9726;52.198;8.792;2024-01-06T02:31:06;33.10;;;16.20;;
19187;SDS011;9726;52.198;8.792;2024-01-06T02:33:33;29.83;;;16.03;;
19187;SDS011;9726;52.198;8.792;2024-01-06T02:36:01;30.27;;;15.03;;
19187;SDS011;9726;52.198;8.792;2024-01-06T02:38:28;27.60;;;14.80;;
19187;SDS011;9726;52.198;8.792;2024-01-06T02:40:56;30.10;;;15.50;;
19187;SDS011;9726;52.198;8.792;2024-01-06T02:43:24;29.97;;;16.27;;
19187;SDS011;9726;52.198;8.792;2024-01-06T02:45:51;42.30;;;17.17;;
19187;SDS011;9726;52.198;8.792;2024-01-06T02:48:19;27.87;;;15.97;;
19187;SDS011;9726;52.198;8.792;2024-01-06T02:50:47;31.73;;;15.57;;
19187;SDS011;9726;52.198;8.792;2024-01-06T02:53:14;27.27;;;14.80;;
19187;SDS011;9726;52.198;8.792;2024-01-06T02:55:42;27.93;;;15.80;;
19187;SDS011;9726;52.198;8.792;2024-01-06T02:58:09;24.43;;;14.03;;
19187;SDS011;9726;52.198;8.792;2024-01-06T03:00:37;33.70;;;16.60;;
19187;SDS011;9726;52.198;8.792;2024-01-06T03:03:05;26.00;;;14.90;;
19187;SDS011;9726;52.198;8.792;2024-01-06T03:05:32;26.00;;;14.07;;
19187;SDS011;9726;52.198;8.792;2024-01-06T03:08:00;30.87;;;14.40;;
19187;SDS011;9726;52.198;8.792;2024-01-06T03:10:28;27.73;;;13.53;;
19187;SDS011;9726;52.198;8.792;2024-01-06T03:12:55;29.20;;;15.70;;
19187;SDS011;9726;52.198;8.792;2024-01-06T03:15:23;28.67;;;14.93;;
19187;SDS011;9726;52.198;8.792;2024-01-06T03:17:51;26.70;;;13.90;;
19187;SDS011;9726;52.198;8.792;2024-01-06T03:20:19;29.53;;;14.50;;
19187;SDS011;9726;52.198;8.792;2024-01-06T03:22:46;29.70;;;16.20;;
19187;SDS011;9726;52.198;8.792;2024-01-06T03:25:14;29.33;;;14.43;;
19187;SDS011;9726;52.198;8.792;2024-01-06T03:27:41;27.73;;;14.87;;
19187;SDS011;9726;52.198;8.792;2024-01-06T03:30:10;34.10;;;14.80;;
19187;SDS011;9726;52.198;8.792;2024-01-06T03:32:38;27.43;;;14.87;;
19187;SDS011;9726;52.198;8.792;2024-01-06T03:35:05;29.80;;;15.43;;
19187;SDS011;9726;52.198;8.792;2024-01-06T03:37:33;29.13;;;15.13;;
19187;SDS011;9726;52.198;8.792;2024-01-06T03:40:00;35.20;;;16.33;;
19187;SDS011;9726;52.198;8.792;2024-01-06T03:42:29;29.37;;;16.20;;
19187;SDS011;9726;52.198;8.792;2024-01-06T03:44:57;30.70;;;17.00;;
19187;SDS011;9726;52.198;8.792;2024-01-06T03:47:24;33.63;;;15.87;;
19187;SDS011;9726;52.198;8.792;2024-01-06T03:49:52;30.20;;;15.60;;
19187;SDS011;9726;52.198;8.792;2024-01-06T03:52:20;30.30;;;16.67;;
19187;SDS011;9726;52.198;8.792;2024-01-06T03:54:48;36.53;;;17.00;;
19187;SDS011;9726;52.198;8.792;2024-01-06T03:57:16;36.70;;;17.37;;
19187;SDS011;9726;52.198;8.792;2024-01-06T03:59:44;32.87;;;16.90;;
19187;SDS011;9726;52.198;8.792;2024-01-06T04:02:11;31.73;;;15.50;;
19187;SDS011;9726;52.198;8.792;2024-01-06T04:04:39;31.27;;;15.70;;
19187;SDS011;9726;52.198;8.792;2024-01-06T04:07:06;29.30;;;16.10;;
19187;SDS011;9726;52.198;8.792;2024-01-06T04:09:34;37.47;;;16.03;;
19187;SDS011;9726;52.198;8.792;2024-01-06T04:12:02;36.77;;;17.00;;
19187;SDS011;9726;52.198;8.792;2024-01-06T04:14:29;29.97;;;16.30;;
19187;SDS011;9726;52.198;8.792;2024-01-06T04:16:57;31.97;;;16.10;;
19187;SDS011;9726;52.198;8.792;2024-01-06T04:19:25;32.23;;;16.23;;
19187;SDS011;9726;52.198;8.792;2024-01-06T04:21:53;29.83;;;16.40;;
19187;SDS011;9726;52.198;8.792;2024-01-06T04:24:21;35.83;;;17.10;;
19187;SDS011;9726;52.198;8.792;2024-01-06T04:26:49;40.50;;;18.70;;
19187;SDS011;9726;52.198;8.792;2024-01-06T04:29:17;35.83;;;17.53;;
19187;SDS011;9726;52.198;8.792;2024-01-06T04:31:45;32.43;;;17.30;;
19187;SDS011;9726;52.198;8.792;2024-01-06T04:34:12;33.40;;;16.53;;
19187;SDS011;9726;52.198;8.792;2024-01-06T04:36:40;38.27;;;17.87;;
19187;SDS011;9726;52.198;8.792;2024-01-06T04:39:08;33.53;;;16.70;;
19187;SDS011;9726;52.198;8.792;2024-01-06T04:41:36;40.00;;;18.23;;
19187;SDS011;9726;52.198;8.792;2024-01-06T04:44:03;35.83;;;17.00;;
19187;SDS011;9726;52.198;8.792;2024-01-06T04:46:31;37.37;;;16.97;;
19187;SDS011;9726;52.198;8.792;2024-01-06T04:48:59;34.67;;;18.07;;
19187;SDS011;9726;52.198;8.792;2024-01-06T04:51:27;39.33;;;17.73;;
19187;SDS011;9726;52.198;8.792;2024-01-06T04:53:54;39.37;;;19.20;;
19187;SDS011;9726;52.198;8.792;2024-01-06T04:56:22;43.87;;;20.03;;
19187;SDS011;9726;52.198;8.792;2024-01-06T04:58:49;40.60;;;19.27;;
19187;SDS011;9726;52.198;8.792;2024-01-06T05:01:17;36.67;;;18.80;;
19187;SDS011;9726;52.198;8.792;2024-01-06T05:03:45;39.13;;;19.70;;
19187;SDS011;9726;52.198;8.792;2024-01-06T05:06:12;46.23;;;19.83;;
19187;SDS011;9726;52.198;8.792;2024-01-06T05:08:40;42.73;;;21.13;;
19187;SDS011;9726;52.198;8.792;2024-01-06T05:11:11;38.40;;;17.63;;
19187;SDS011;9726;52.198;8.792;2024-01-06T05:13:39;44.00;;;20.77;;
19187;SDS011;9726;52.198;8.792;2024-01-06T05:16:07;42.03;;;19.50;;
19187;SDS011;9726;52.198;8.792;2024-01-06T05:18:35;45.10;;;19.00;;
19187;SDS011;9726;52.198;8.792;2024-01-06T05:21:03;39.73;;;18.93;;
19187;SDS011;9726;52.198;8.792;2024-01-06T05:23:31;44.60;;;20.63;;
19187;SDS011;9726;52.198;8.792;2024-01-06T05:25:58;47.40;;;19.90;;
19187;SDS011;9726;52.198;8.792;2024-01-06T05:28:26;46.33;;;20.77;;
19187;SDS011;9726;52.198;8.792;2024-01-06T05:30:53;43.57;;;19.07;;
19187;SDS011;9726;52.198;8.792;2024-01-06T05:33:21;49.10;;;20.93;;
19187;SDS011;9726;52.198;8.792;2024-01-06T05:35:49;50.13;;;20.27;;
19187;SDS011;9726;52.198;8.792;2024-01-06T05:38:17;50.43;;;19.37;;
19187;SDS011;9726;52.198;8.792;2024-01-06T05:40:44;37.90;;;16.70;;
19187;SDS011;9726;52.198;8.792;2024-01-06T05:43:12;29.80;;;14.50;;
19187;SDS011;9726;52.198;8.792;2024-01-06T05:45:39;31.37;;;13.53;;
19187;SDS011;9726;52.198;8.792;2024-01-06T05:48:09;28.97;;;12.57;;
19187;SDS011;9726;52.198;8.792;2024-01-06T05:50:37;26.57;;;11.40;;
19187;SDS011;9726;52.198;8.792;2024-01-06T05:53:08;25.87;;;12.60;;
19187;SDS011;9726;52.198;8.792;2024-01-06T05:55:37;28.37;;;11.83;;
19187;SDS011;9726;52.198;8.792;2024-01-06T05:58:05;23.33;;;10.70;;
19187;SDS011;9726;52.198;8.792;2024-01-06T06:00:32;18.60;;;8.10;;
19187;SDS011;9726;52.198;8.792;2024-01-06T06:03:00;14.40;;;7.03;;
19187;SDS011;9726;52.198;8.792;2024-01-06T06:05:27;18.43;;;7.60;;
19187;SDS011;9726;52.198;8.792;2024-01-06T06:07:55;15.47;;;7.70;;
19187;SDS011;9726;52.198;8.792;2024-01-06T06:10:22;12.33;;;6.30;;
19187;SDS011;9726;52.198;8.792;2024-01-06T06:12:50;5.53;;;3.73;;
19187;SDS011;9726;52.198;8.792;2024-01-06T06:15:17;8.10;;;4.90;;
19187;SDS011;9726;52.198;8.792;2024-01-06T06:17:45;8.47;;;4.50;;
19187;SDS011;9726;52.198;8.792;2024-01-06T06:20:13;7.47;;;4.00;;
19187;SDS011;9726;52.198;8.792;2024-01-06T06:22:40;6.50;;;4.00;;
19187;SDS011;9726;52.198;8.792;2024-01-06T06:25:08;6.97;;;4.40;;
19187;SDS011;9726;52.198;8.792;2024-01-06T06:27:36;8.50;;;4.87;;
19187;SDS011;9726;52.198;8.792;2024-01-06T06:30:04;9.40;;;5.17;;
19187;SDS011;9726;52.198;8.792;2024-01-06T06:32:32;11.20;;;5.10;;
19187;SDS011;9726;52.198;8.792;2024-01-06T06:34:59;9.07;;;4.90;;
19187;SDS011;9726;52.198;8.792;2024-01-06T06:37:28;8.63;;;5.27;;
19187;SDS011;9726;52.198;8.792;2024-01-06T06:39:55;8.87;;;5.60;;
19187;SDS011;9726;52.198;8.792;2024-01-06T06:42:23;8.67;;;4.93;;
19187;SDS011;9726;52.198;8.792;2024-01-06T06:44:50;9.40;;;4.97;;
19187;SDS011;9726;52.198;8.792;2024-01-06T06:47:18;11.70;;;5.40;;
19187;SDS011;9726;52.198;8.792;2024-01-06T06:49:46;9.73;;;5.77;;
19187;SDS011;9726;52.198;8.792;2024-01-06T06:52:13;11.97;;;6.27;;
19187;SDS011;9726;52.198;8.792;2024-01-06T06:54:41;9.70;;;5.67;;
19187;SDS011;9726;52.198;8.792;2024-01-06T06:57:08;8.90;;;4.87;;
19187;SDS011;9726;52.198;8.792;2024-01-06T06:59:36;13.20;;;6.43;;
19187;SDS011;9726;52.198;8.792;2024-01-06T07:02:03;10.87;;;6.47;;
19187;SDS011;9726;52.198;8.792;2024-01-06T07:04:31;15.83;;;6.40;;
19187;SDS011;9726;52.198;8.792;2024-01-06T07:06:58;12.17;;;7.23;;
19187;SDS011;9726;52.198;8.792;2024-01-06T07:09:26;12.23;;;6.03;;
19187;SDS011;9726;52.198;8.792;2024-01-06T07:11:53;12.10;;;6.83;;
19187;SDS011;9726;52.198;8.792;2024-01-06T07:14:20;12.80;;;7.30;;
19187;SDS011;9726;52.198;8.792;2024-01-06T07:16:48;11.27;;;7.20;;
19187;SDS011;9726;52.198;8.792;2024-01-06T07:19:16;12.57;;;6.90;;
19187;SDS011;9726;52.198;8.792;2024-01-06T07:21:44;14.27;;;6.33;;
19187;SDS011;9726;52.198;8.792;2024-01-06T07:24:12;15.30;;;7.30;;
19187;SDS011;9726;52.198;8.792;2024-01-06T07:26:40;17.53;;;7.60;;
19187;SDS011;9726;52.198;8.792;2024-01-06T07:29:07;13.03;;;6.60;;
19187;SDS011;9726;52.198;8.792;2024-01-06T07:31:35;18.80;;;8.53;;
19187;SDS011;9726;52.198;8.792;2024-01-06T07:34:02;16.47;;;8.53;;
19187;SDS011;9726;52.198;8.792;2024-01-06T07:36:30;22.13;;;9.37;;
19187;SDS011;9726;52.198;8.792;2024-01-06T07:38:58;17.77;;;7.97;;
19187;SDS011;9726;52.198;8.792;2024-01-06T07:41:25;15.30;;;7.53;;
19187;SDS011;9726;52.198;8.792;2024-01-06T07:43:53;14.33;;;7.57;;
19187;SDS011;9726;52.198;8.792;2024-01-06T07:46:20;19.27;;;7.60;;
19187;SDS011;9726;52.198;8.792;2024-01-06T07:48:48;18.40;;;8.90;;
19187;SDS011;9726;52.198;8.792;2024-01-06T07:51:15;16.37;;;8.63;;
19187;SDS011;9726;52.198;8.792;2024-01-06T07:53:43;20.53;;;9.57;;
19187;SDS011;9726;52.198;8.792;2024-01-06T07:56:11;17.70;;;8.67;;
19187;SDS011;9726;52.198;8.792;2024-01-06T07:58:39;20.60;;;9.03;;
19187;SDS011;9726;52.198;8.792;2024-01-06T08:01:06;20.50;;;8.90;;
19187;SDS011;9726;52.198;8.792;2024-01-06T08:03:34;18.40;;;9.20;;
19187;SDS011;9726;52.198;8.792;2024-01-06T08:06:02;15.67;;;8.73;;
19187;SDS011;9726;52.198;8.792;2024-01-06T08:08:30;16.67;;;8.43;;
19187;SDS011;9726;52.198;8.792;2024-01-06T08:10:57;21.03;;;9.30;;
19187;SDS011;9726;52.198;8.792;2024-01-06T08:13:25;18.20;;;9.83;;
19187;SDS011;9726;52.198;8.792;2024-01-06T08:15:52;20.70;;;10.07;;
19187;SDS011;9726;52.198;8.792;2024-01-06T08:18:20;18.13;;;9.05;;
19187;SDS011;9726;52.198;8.792;2024-01-06T08:20:48;15.10;;;6.67;;
19187;SDS011;9726;52.198;8.792;2024-01-06T08:23:16;14.43;;;7.00;;
19187;SDS011;9726;52.198;8.792;2024-01-06T08:25:45;13.43;;;7.50;;
19187;SDS011;9726;52.198;8.792;2024-01-06T08:28:13;17.80;;;8.70;;
19187;SDS011;9726;52.198;8.792;2024-01-06T08:30:41;23.67;;;9.53;;
19187;SDS011;9726;52.198;8.792;2024-01-06T08:33:09;23.67;;;9.17;;
19187;SDS011;9726;52.198;8.792;2024-01-06T08:35:37;18.77;;;10.10;;
19187;SDS011;9726;52.198;8.792;2024-01-06T08:38:07;13.90;;;6.60;;
19187;SDS011;9726;52.198;8.792;2024-01-06T08:40:34;12.07;;;6.20;;
19187;SDS011;9726;52.198;8.792;2024-01-06T08:43:02;15.03;;;5.60;;
19187;SDS011;9726;52.198;8.792;2024-01-06T08:45:30;13.17;;;6.30;;
19187;SDS011;9726;52.198;8.792;2024-01-06T08:47:57;11.23;;;6.17;;
19187;SDS011;9726;52.198;8.792;2024-01-06T08:50:25;11.83;;;6.37;;
19187;SDS011;9726;52.198;8.792;2024-01-06T08:52:53;12.10;;;6.27;;
19187;SDS011;9726;52.198;8.792;2024-01-06T08:55:20;14.93;;;6.57;;
19187;SDS011;9726;52.198;8.792;2024-01-06T08:57:48;14.77;;;5.87;;
19187;SDS011;9726;52.198;8.792;2024-01-06T09:00:16;15.23;;;7.00;;
19187;SDS011;9726;52.198;8.792;2024-01-06T09:02:44;18.13;;;7.20;;
19187;SDS011;9726;52.198;8.792;2024-01-06T09:05:12;13.40;;;6.73;;
19187;SDS011;9726;52.198;8.792;2024-01-06T09:07:39;12.43;;;6.47;;
19187;SDS011;9726;52.198;8.792;2024-01-06T09:10:07;11.83;;;6.40;;
19187;SDS011;9726;52.198;8.792;2024-01-06T09:12:36;9.17;;;5.03;;
19187;SDS011;9726;52.198;8.792;2024-01-06T09:15:04;11.90;;;5.80;;
19187;SDS011;9726;52.198;8.792;2024-01-06T09:17:31;11.37;;;6.10;;
19187;SDS011;9726;52.198;8.792;2024-01-06T09:20:01;10.47;;;6.17;;
19187;SDS011;9726;52.198;8.792;2024-01-06T09:22:29;12.53;;;5.37;;
19187;SDS011;9726;52.198;8.792;2024-01-06T09:24:56;10.80;;;5.53;;
19187;SDS011;9726;52.198;8.792;2024-01-06T09:27:24;14.67;;;5.50;;
19187;SDS011;9726;52.198;8.792;2024-01-06T09:29:52;15.73;;;6.43;;
19187;SDS011;9726;52.198;8.792;2024-01-06T09:32:19;9.27;;;5.67;;
19187;SDS011;9726;52.198;8.792;2024-01-06T09:34:49;8.70;;;5.13;;
19187;SDS011;9726;52.198;8.792;2024-01-06T09:37:17;10.20;;;5.23;;
19187;SDS011;9726;52.198;8.792;2024-01-06T09:39:51;11.37;;;5.67;;
19187;SDS011;9726;52.198;8.792;2024-01-06T09:42:26;11.27;;;6.30;;
19187;SDS011;9726;52.198;8.792;2024-01-06T09:45:10;14.77;;;7.07;;
19187;SDS011;9726;52.198;8.792;2024-01-06T09:47:38;19.30;;;7.33;;
19187;SDS011;9726;52.198;8.792;2024-01-06T09:50:10;17.63;;;8.37;;
19187;SDS011;9726;52.198;8.792;2024-01-06T09:52:40;14.77;;;7.23;;
19187;SDS011;9726;52.198;8.792;2024-01-06T09:55:10;11.70;;;6.53;;
19187;SDS011;9726;52.198;8.792;2024-01-06T09:57:38;14.40;;;6.70;;
19187;SDS011;9726;52.198;8.792;2024-01-06T10:00:06;11.90;;;6.93;;
19187;SDS011;9726;52.198;8.792;2024-01-06T10:02:37;18.33;;;7.47;;
19187;SDS011;9726;52.198;8.792;2024-01-06T10:05:07;15.20;;;7.70;;
19187;SDS011;9726;52.198;8.792;2024-01-06T10:07:35;15.97;;;6.57;;
19187;SDS011;9726;52.198;8.792;2024-01-06T10:10:02;16.40;;;7.37;;
19187;SDS011;9726;52.198;8.792;2024-01-06T10:12:30;14.27;;;6.33;;
19187;SDS011;9726;52.198;8.792;2024-01-06T10:14:58;12.27;;;6.33;;
19187;SDS011;9726;52.198;8.792;2024-01-06T10:17:26;14.63;;;6.60;;
19187;SDS011;9726;52.198;8.792;2024-01-06T10:19:54;12.50;;;6.57;;
19187;SDS011;9726;52.198;8.792;2024-01-06T10:22:23;12.20;;;6.13;;
19187;SDS011;9726;52.198;8.792;2024-01-06T10:24:51;14.23;;;7.43;;
19187;SDS011;9726;52.198;8.792;2024-01-06T10:27:18;9.80;;;6.20;;
19187;SDS011;9726;52.198;8.792;2024-01-06T10:29:46;10.13;;;6.37;;
19187;SDS011;9726;52.198;8.792;2024-01-06T10:32:14;11.70;;;6.40;;
19187;SDS011;9726;52.198;8.792;2024-01-06T10:34:41;11.53;;;5.87;;
19187;SDS011;9726;52.198;8.792;2024-01-06T10:37:09;10.60;;;5.73;;
19187;SDS011;9726;52.198;8.792;2024-01-06T10:39:37;10.67;;;4.93;;
19187;SDS011;9726;52.198;8.792;2024-01-06T10:42:06;9.93;;;5.07;;
19187;SDS011;9726;52.198;8.792;2024-01-06T10:44:34;9.07;;;4.73;;
19187;SDS011;9726;52.198;8.792;2024-01-06T10:47:02;8.30;;;4.90;;
19187;SDS011;9726;52.198;8.792;2024-01-06T10:49:30;8.77;;;4.77;;
19187;SDS011;9726;52.198;8.792;2024-01-06T10:51:58;11.63;;;3.70;;
19187;SDS011;9726;52.198;8.792;2024-01-06T10:54:26;8.77;;;4.63;;
19187;SDS011;9726;52.198;8.792;2024-01-06T10:56:55;10.47;;;4.47;;
19187;SDS011;9726;52.198;8.792;2024-01-06T10:59:24;7.70;;;4.10;;
19187;SDS011;9726;52.198;8.792;2024-01-06T11:01:53;8.40;;;4.70;;
19187;SDS011;9726;52.198;8.792;2024-01-06T11:04:22;10.13;;;4.53;;
19187;SDS011;9726;52.198;8.792;2024-01-06T11:06:50;5.73;;;3.53;;
19187;SDS011;9726;52.198;8.792;2024-01-06T11:09:19;5.50;;;3.30;;
19187;SDS011;9726;52.198;8.792;2024-01-06T11:11:48;5.83;;;3.40;;
19187;SDS011;9726;52.198;8.792;2024-01-06T11:14:26;6.67;;;3.90;;
19187;SDS011;9726;52.198;8.792;2024-01-06T11:16:54;5.17;;;3.40;;
19187;SDS011;9726;52.198;8.792;2024-01-06T11:24:51;5.13;;;3.37;;
19187;SDS011;9726;52.198;8.792;2024-01-06T11:27:20;6.40;;;4.00;;
19187;SDS011;9726;52.198;8.792;2024-01-06T11:29:52;7.37;;;4.03;;
19187;SDS011;9726;52.198;8.792;2024-01-06T11:34:50;8.00;;;3.43;;
19187;SDS011;9726;52.198;8.792;2024-01-06T11:37:23;4.97;;;3.57;;
19187;SDS011;9726;52.198;8.792;2024-01-06T11:39:51;7.10;;;3.90;;
19187;SDS011;9726;52.198;8.792;2024-01-06T11:42:20;5.77;;;3.50;;
19187;SDS011;9726;52.198;8.792;2024-01-06T11:44:49;5.27;;;3.20;;
19187;SDS011;9726;52.198;8.792;2024-01-06T11:47:17;3.87;;;2.93;;
19187;SDS011;9726;52.198;8.792;2024-01-06T11:49:51;6.60;;;3.87;;
19187;SDS011;9726;52.198;8.792;2024-01-06T11:52:22;6.07;;;3.80;;
19187;SDS011;9726;52.198;8.792;2024-01-06T11:54:49;7.30;;;3.93;;
19187;SDS011;9726;52.198;8.792;2024-01-06T11:57:17;6.07;;;3.67;;
19187;SDS011;9726;52.198;8.792;2024-01-06T11:59:44;11.87;;;6.00;;
19187;SDS011;9726;52.198;8.792;2024-01-06T12:02:12;7.07;;;4.20;;
19187;SDS011;9726;52.198;8.792;2024-01-06T12:04:40;5.60;;;4.07;;
19187;SDS011;9726;52.198;8.792;2024-01-06T12:07:08;7.67;;;4.27;;
19187;SDS011;9726;52.198;8.792;2024-01-06T12:09:35;8.53;;;4.17;;
19187;SDS011;9726;52.198;8.792;2024-01-06T12:12:04;6.43;;;3.47;;
19187;SDS011;9726;52.198;8.792;2024-01-06T12:14:36;11.07;;;4.90;;
19187;SDS011;9726;52.198;8.792;2024-01-06T12:17:04;9.10;;;3.90;;
19187;SDS011;9726;52.198;8.792;2024-01-06T12:19:32;5.30;;;3.70;;
19187;SDS011;9726;52.198;8.792;2024-01-06T12:22:05;5.73;;;4.07;;
19187;SDS011;9726;52.198;8.792;2024-01-06T12:24:37;6.13;;;4.13;;
19187;SDS011;9726;52.198;8.792;2024-01-06T12:27:06;10.97;;;5.30;;
19187;SDS011;9726;52.198;8.792;2024-01-06T12:29:43;8.43;;;4.80;;
19187;SDS011;9726;52.198;8.792;2024-01-06T12:32:11;8.20;;;5.03;;
19187;SDS011;9726;52.198;8.792;2024-01-06T12:34:40;11.43;;;5.00;;
19187;SDS011;9726;52.198;8.792;2024-01-06T12:37:08;10.30;;;5.23;;
19187;SDS011;9726;52.198;8.792;2024-01-06T12:39:35;13.23;;;4.87;;
19187;SDS011;9726;52.198;8.792;2024-01-06T12:42:03;8.97;;;5.53;;
19187;SDS011;9726;52.198;8.792;2024-01-06T12:44:31;9.47;;;5.33;;
19187;SDS011;9726;52.198;8.792;2024-01-06T12:47:00;15.13;;;6.93;;
19187;SDS011;9726;52.198;8.792;2024-01-06T12:49:28;16.53;;;6.90;;
19187;SDS011;9726;52.198;8.792;2024-01-06T12:51:55;11.70;;;6.10;;
19187;SDS011;9726;52.198;8.792;2024-01-06T12:54:23;12.97;;;7.03;;
19187;SDS011;9726;52.198;8.792;2024-01-06T12:56:51;13.97;;;6.60;;
19187;SDS011;9726;52.198;8.792;2024-01-06T12:59:18;12.53;;;5.00;;
19187;SDS011;9726;52.198;8.792;2024-01-06T13:01:45;9.00;;;5.23;;
19187;SDS011;9726;52.198;8.792;2024-01-06T13:04:13;8.63;;;4.87;;
19187;SDS011;9726;52.198;8.792;2024-01-06T13:06:41;9.40;;;5.50;;
19187;SDS011;9726;52.198;8.792;2024-01-06T13:09:09;6.40;;;4.80;;
19187;SDS011;9726;52.198;8.792;2024-01-06T13:11:39;6.33;;;4.50;;
19187;SDS011;9726;52.198;8.792;2024-01-06T13:14:06;7.37;;;4.90;;
19187;SDS011;9726;52.198;8.792;2024-01-06T13:16:34;9.10;;;4.93;;
19187;SDS011;9726;52.198;8.792;2024-01-06T13:19:03;7.57;;;4.73;;
19187;SDS011;9726;52.198;8.792;2024-01-06T13:21:31;8.13;;;5.23;;
19187;SDS011;9726;52.198;8.792;2024-01-06T13:23:59;5.83;;;4.27;;
19187;SDS011;9726;52.198;8.792;2024-01-06T13:26:29;7.47;;;5.40;;
19187;SDS011;9726;52.198;8.792;2024-01-06T13:28:56;7.43;;;4.17;;
19187;SDS011;9726;52.198;8.792;2024-01-06T13:31:24;17.93;;;9.00;;
19187;SDS011;9726;52.198;8.792;2024-01-06T13:33:51;21.73;;;11.17;;
19187;SDS011;9726;52.198;8.792;2024-01-06T13:36:22;26.00;;;10.90;;
19187;SDS011;9726;52.198;8.792;2024-01-06T13:38:50;30.30;;;15.17;;
19187;SDS011;9726;52.198;8.792;2024-01-06T13:41:17;26.03;;;12.30;;
19187;SDS011;9726;52.198;8.792;2024-01-06T13:43:45;33.53;;;14.53;;
19187;SDS011;9726;52.198;8.792;2024-01-06T13:46:12;29.13;;;14.70;;
19187;SDS011;9726;52.198;8.792;2024-01-06T13:48:40;27.70;;;13.53;;
19187;SDS011;9726;52.198;8.792;2024-01-06T13:51:08;27.53;;;14.17;;
19187;SDS011;9726;52.198;8.792;2024-01-06T13:53:36;28.20;;;14.30;;
19187;SDS011;9726;52.198;8.792;2024-01-06T13:56:04;26.80;;;14.53;;
19187;SDS011;9726;52.198;8.792;2024-01-06T13:58:32;30.47;;;14.73;;
19187;SDS011;9726;52.198;8.792;2024-01-06T14:01:02;37.17;;;13.60;;
19187;SDS011;9726;52.198;8.792;2024-01-06T14:03:30;31.07;;;13.87;;
19187;SDS011;9726;52.198;8.792;2024-01-06T14:05:58;26.53;;;13.90;;
19187;SDS011;9726;52.198;8.792;2024-01-06T14:08:26;32.70;;;15.00;;
19187;SDS011;9726;52.198;8.792;2024-01-06T14:10:53;30.57;;;14.53;;
19187;SDS011;9726;52.198;8.792;2024-01-06T14:13:21;31.23;;;14.37;;
19187;SDS011;9726;52.198;8.792;2024-01-06T14:15:49;26.00;;;13.37;;
19187;SDS011;9726;52.198;8.792;2024-01-06T14:18:16;27.60;;;14.97;;
19187;SDS011;9726;52.198;8.792;2024-01-06T14:20:44;35.17;;;16.23;;
19187;SDS011;9726;52.198;8.792;2024-01-06T14:23:12;35.60;;;16.13;;
19187;SDS011;9726;52.198;8.792;2024-01-06T14:25:39;32.40;;;15.77;;
19187;SDS011;9726;52.198;8.792;2024-01-06T14:28:07;36.63;;;14.90;;
19187;SDS011;9726;52.198;8.792;2024-01-06T14:30:35;34.37;;;16.03;;
19187;SDS011;9726;52.198;8.792;2024-01-06T14:33:05;33.73;;;15.93;;
19187;SDS011;9726;52.198;8.792;2024-01-06T14:35:33;32.10;;;15.77;;
19187;SDS011;9726;52.198;8.792;2024-01-06T14:38:00;28.33;;;15.47;;
19187;SDS011;9726;52.198;8.792;2024-01-06T14:40:28;32.87;;;16.23;;
19187;SDS011;9726;52.198;8.792;2024-01-06T14:42:55;32.57;;;15.53;;
19187;SDS011;9726;52.198;8.792;2024-01-06T14:45:24;31.53;;;15.43;;
19187;SDS011;9726;52.198;8.792;2024-01-06T14:47:51;31.87;;;16.10;;
19187;SDS011;9726;52.198;8.792;2024-01-06T14:50:19;37.93;;;17.07;;
19187;SDS011;9726;52.198;8.792;2024-01-06T14:52:47;34.67;;;16.20;;
19187;SDS011;9726;52.198;8.792;2024-01-06T14:55:15;35.33;;;17.33;;